Terminal Aerodrome Forecast
Issued by NWS

Home | Current Version | Previous Version | Text Only | Print | Product List | Glossary On
Versions: 1 2 3 4 5 6 7 8 9 10 11 12
000
FTUS46 KSGX 041120
TAFONT
TAF
KONT 041120Z 0412/0518 26006KT P6SM SKC
     FM042100 25011KT P6SM SKC
     FM050500 VRB05KT P6SM FEW010
     FM051100 VRB04KT 4SM BR BKN007
     FM051600 VRB04KT 6SM HZ SCT010=

USA.gov is the U.S. government's official web portal to all federal, state and local government web resources and services.